Time;durP1;ratioP1;P1;durP2;ratioP2;P2;SDS_P1;SDS_P2;PMS_P1;PMS_P2;Temp;Humidity;BMP_temperature;BMP_pressure;BME280_temperature;BME280_humidity;BME280_pressure;Samples;Min_cycle;Max_cycle;Signal;HPM_P1;HPM_P2
2022/12/13 00:01:47;;;;;;;79.75;28.48;;;-1.70;99.90;;;;;;6188960;23;20013;-74
2022/12/13 00:04:15;;;;;;;81.22;29.05;;;-1.70;99.90;;;;;;6161727;23;20009;-73
2022/12/13 00:06:43;;;;;;;77.82;29.80;;;-1.70;99.90;;;;;;6197644;23;20035;-73
2022/12/13 00:09:16;;;;;;;78.07;28.23;;;-1.70;99.90;;;;;;6162683;23;20024;-74
2022/12/13 00:11:44;;;;;;;74.93;27.65;;;-1.70;99.90;;;;;;6161467;23;20327;-74
2022/12/13 00:14:14;;;;;;;74.05;27.33;;;-1.70;99.90;;;;;;6188918;23;20009;-74
2022/12/13 00:16:46;;;;;;;68.03;26.48;;;-1.80;99.90;;;;;;6197572;23;20311;-74
2022/12/13 00:19:16;;;;;;;67.45;26.45;;;-1.80;99.90;;;;;;6198624;23;20028;-74
2022/12/13 00:21:43;;;;;;;68.90;26.27;;;-1.80;99.90;;;;;;6162468;23;20414;-74
2022/12/13 00:24:11;;;;;;;61.83;25.25;;;-1.90;99.90;;;;;;6186387;23;20024;-73
2022/12/13 00:26:39;;;;;;;63.53;25.70;;;-1.90;99.90;;;;;;6198641;23;20013;-73
2022/12/13 00:29:10;;;;;;;65.47;25.27;;;-1.90;99.90;;;;;;6188630;23;20453;-74
2022/12/13 00:31:38;;;;;;;64.75;26.15;;;-2.00;99.90;;;;;;6197100;23;20009;-74
2022/12/13 00:34:25;;;;;;;67.28;26.58;;;-2.00;99.90;;;;;;6185712;23;20014;-73
2022/12/13 00:36:54;;;;;;;73.90;27.65;;;-2.10;99.90;;;;;;6197741;23;20303;-74
2022/12/13 00:39:21;;;;;;;66.13;25.65;;;-2.20;99.90;;;;;;6162872;23;20032;-74
2022/12/13 00:41:49;;;;;;;71.10;25.73;;;-2.20;99.90;;;;;;6138340;23;20017;-73
2022/12/13 00:44:18;;;;;;;71.75;27.20;;;-2.20;99.90;;;;;;6160996;23;20017;-73
2022/12/13 00:46:46;;;;;;;63.92;26.05;;;-2.30;99.90;;;;;;6198320;23;20036;-73
2022/12/13 00:49:13;;;;;;;70.78;26.77;;;-2.30;99.90;;;;;;6188656;23;20020;-74
2022/12/13 00:51:41;;;;;;;65.07;25.35;;;-0.60;99.90;;;;;;6187115;23;20429;-74
2022/12/13 00:54:09;;;;;;;74.38;27.85;;;-2.30;99.90;;;;;;6162852;23;20020;-73
2022/12/13 00:56:37;;;;;;;76.72;27.83;;;-2.30;99.90;;;;;;6196977;23;20327;-74
2022/12/13 00:59:04;;;;;;;82.18;28.45;;;-2.40;99.90;;;;;;6137569;23;20016;-74
2022/12/13 01:01:35;;;;;;;84.55;29.42;;;-2.40;99.90;;;;;;6162756;23;20295;-74
2022/12/13 01:04:04;;;;;;;85.53;29.27;;;-2.40;99.90;;;;;;6187386;23;20028;-74
2022/12/13 01:06:40;;;;;;;77.28;27.42;;;-2.30;99.90;;;;;;6137935;23;20445;-75
2022/12/13 01:09:20;;;;;;;75.07;26.58;;;-2.30;99.90;;;;;;6198086;23;20415;-74
2022/12/13 01:11:49;;;;;;;69.55;26.05;;;-2.30;99.90;;;;;;6195693;23;20028;-73
2022/12/13 01:14:17;;;;;;;75.47;27.15;;;-2.40;99.90;;;;;;6188190;23;20028;-75
2022/12/13 01:16:45;;;;;;;74.25;28.30;;;-2.30;99.90;;;;;;6196664;23;20013;-74
2022/12/13 01:19:13;;;;;;;74.32;27.10;;;-2.40;99.90;;;;;;6137566;23;20021;-74
2022/12/13 01:21:40;;;;;;;68.55;27.50;;;-2.40;99.90;;;;;;6187172;23;20021;-75
2022/12/13 01:24:08;;;;;;;68.40;26.73;;;-2.40;99.90;;;;;;6136133;23;20318;-74
2022/12/13 01:26:35;;;;;;;68.90;27.52;;;-2.40;99.90;;;;;;6198074;23;20013;-73
2022/12/13 01:29:04;;;;;;;64.45;25.88;;;-2.40;99.90;;;;;;6162279;23;20013;-74
2022/12/13 01:31:32;;;;;;;68.47;26.13;;;-2.40;99.90;;;;;;6160987;23;20013;-74
2022/12/13 01:34:09;;;;;;;65.68;25.90;;;-2.50;99.90;;;;;;6186830;23;20021;-73
2022/12/13 01:36:39;;;;;;;66.25;26.45;;;-2.50;99.90;;;;;;6196470;23;20020;-74
2022/12/13 01:39:08;;;;;;;67.75;26.77;;;-2.50;99.90;;;;;;6162580;23;20017;-74
2022/12/13 01:41:44;;;;;;;64.53;25.95;;;-2.50;99.90;;;;;;6173930;23;20012;-74
2022/12/13 01:44:49;;;;;;;61.13;25.30;;;-2.50;99.90;;;;;;6160715;23;20020;-74
2022/12/13 01:47:26;;;;;;;66.80;25.15;;;-2.50;99.90;;;;;;6162387;23;20017;-74
2022/12/13 01:49:57;;;;;;;67.43;27.27;;;-2.50;99.90;;;;;;6196376;23;20449;-75
2022/12/13 01:52:29;;;;;;;70.30;25.70;;;-2.60;99.90;;;;;;6197043;23;20032;-75
2022/12/13 01:54:58;;;;;;;64.97;25.33;;;-2.60;99.90;;;;;;6171456;23;20016;-75
2022/12/13 01:57:33;;;;;;;71.53;26.75;;;-2.60;99.90;;;;;;6196190;23;20017;-74
2022/12/13 02:00:02;;;;;;;68.55;26.40;;;-2.60;99.90;;;;;;6172170;23;20423;-74
2022/12/13 02:02:33;;;;;;;67.55;26.52;;;-2.60;99.90;;;;;;6191149;23;20025;-75
2022/12/13 02:05:25;;;;;;;72.72;26.45;;;-2.70;99.90;;;;;;6186425;23;20414;-74
2022/12/13 02:07:55;;;;;;;64.70;25.73;;;-2.70;99.90;;;;;;6197503;23;20013;-73
2022/12/13 02:10:22;;;;;;;70.80;26.67;;;-2.70;99.90;;;;;;6185125;23;20017;-74
2022/12/13 02:12:50;;;;;;;68.18;26.33;;;-2.70;99.90;;;;;;6187646;23;20013;-74
2022/12/13 02:15:19;;;;;;;76.35;26.95;;;-1.10;99.90;;;;;;6162056;23;20327;-74
2022/12/13 02:18:08;;;;;;;64.55;26.50;;;-2.80;99.90;;;;;;6196306;23;20013;-74
2022/12/13 02:21:01;;;;;;;65.35;24.33;;;-2.00;99.90;;;;;;6198232;23;20023;-74
2022/12/13 02:24:01;;;;;;;61.60;23.92;;;-2.80;99.90;;;;;;6196196;23;20009;-73
2022/12/13 02:26:50;;;;;;;65.80;24.05;;;-2.80;99.90;;;;;;6187660;23;20013;-74
2022/12/13 02:29:46;;;;;;;65.45;23.98;;;-2.90;99.90;;;;;;6197436;23;20410;-74
2022/12/13 02:32:49;;;;;;;62.67;24.70;;;-2.90;99.90;;;;;;6197474;23;20013;-74
2022/12/13 02:35:31;;;;;;;62.63;24.08;;;-2.90;99.90;;;;;;6153882;23;20013;-74
2022/12/13 02:38:19;;;;;;;64.70;24.33;;;-2.90;99.90;;;;;;6196325;23;20013;-74
2022/12/13 02:41:17;;;;;;;61.75;23.30;;;-2.90;99.90;;;;;;6145748;23;20021;-74
2022/12/13 02:43:52;;;;;;;61.70;23.90;;;-2.90;99.90;;;;;;6196468;23;20013;-75
2022/12/13 02:46:32;;;;;;;62.03;23.85;;;-2.90;99.90;;;;;;6197177;23;20020;-74
2022/12/13 02:49:02;;;;;;;60.80;23.45;;;-2.90;99.90;;;;;;6197493;23;20013;-74
2022/12/13 02:51:30;;;;;;;59.25;24.00;;;-3.00;99.90;;;;;;6160108;23;20009;-74
2022/12/13 02:53:58;;;;;;;65.65;24.40;;;-3.00;99.90;;;;;;6187382;23;20009;-75
2022/12/13 02:56:25;;;;;;;63.30;24.00;;;-3.00;99.90;;;;;;6170936;23;20374;-74
2022/12/13 02:58:54;;;;;;;56.20;22.63;;;-3.00;99.90;;;;;;6136894;23;20017;-74
2022/12/13 03:01:30;;;;;;;65.75;24.60;;;-2.10;99.90;;;;;;6187128;23;20422;-75
2022/12/13 03:04:29;;;;;;;59.88;23.13;;;-3.00;99.90;;;;;;6162435;23;20028;-74
2022/12/13 03:07:12;;;;;;;59.50;23.10;;;-3.00;99.90;;;;;;6138454;23;20020;-74
2022/12/13 03:10:13;;;;;;;59.72;23.08;;;-3.00;99.90;;;;;;6198125;23;20016;-75
2022/12/13 03:15:35;;;;;;;64.40;22.90;;;-3.10;99.90;;;;;;6199303;23;20013;-72
2022/12/13 03:18:16;;;;;;;57.38;22.00;;;-3.10;99.90;;;;;;6172461;23;20024;-73
2022/12/13 03:20:46;;;;;;;56.05;22.35;;;-3.10;99.90;;;;;;6173283;23;20036;-73
2022/12/13 03:23:16;;;;;;;59.55;21.85;;;-3.10;99.90;;;;;;6137944;23;20032;-74
2022/12/13 03:25:46;;;;;;;56.08;21.73;;;-3.20;99.90;;;;;;6163708;23;20442;-74
2022/12/13 03:28:13;;;;;;;47.83;20.23;;;-3.10;99.90;;;;;;6163887;23;20314;-74
2022/12/13 03:30:41;;;;;;;54.28;21.10;;;-3.10;99.90;;;;;;6187876;23;20009;-73
2022/12/13 03:33:09;;;;;;;54.40;20.85;;;-3.10;99.90;;;;;;6188004;23;20445;-75
2022/12/13 03:35:39;;;;;;;54.60;20.05;;;-3.10;99.90;;;;;;6189639;23;20009;-74
2022/12/13 03:38:16;;;;;;;50.95;20.15;;;-3.20;99.90;;;;;;6197712;23;20013;-73
2022/12/13 03:41:05;;;;;;;55.13;20.00;;;-3.10;99.90;;;;;;6199236;23;20020;-73
2022/12/13 03:43:33;;;;;;;57.15;19.83;;;-3.10;99.90;;;;;;6137244;23;20415;-74
2022/12/13 03:46:01;;;;;;;;;;;-3.20;99.90;;;;;;6139247;23;20036;-75
2022/12/13 03:48:29;;;;;;;47.22;18.67;;;-3.00;99.90;;;;;;6163464;23;19916;-73
2022/12/13 03:50:56;;;;;;;49.60;19.27;;;-3.20;99.90;;;;;;6161831;23;20307;-74
2022/12/13 03:53:25;;;;;;;54.42;18.80;;;-3.20;99.90;;;;;;6188911;23;20322;-74
2022/12/13 03:56:02;;;;;;;52.17;19.05;;;-3.20;99.90;;;;;;6162879;23;20465;-75
2022/12/13 03:58:30;;;;;;;58.72;20.05;;;-3.30;99.90;;;;;;6186300;23;20013;-75
2022/12/13 04:01:05;;;;;;;49.25;18.70;;;-3.30;99.90;;;;;;6198546;23;20013;-75
2022/12/13 04:03:33;;;;;;;49.10;18.23;;;-3.30;99.90;;;;;;6171439;23;20020;-75
2022/12/13 04:06:02;;;;;;;46.08;18.30;;;-3.30;99.90;;;;;;6198731;23;20039;-74
2022/12/13 04:08:29;;;;;;;;;;;-3.40;99.90;;;;;;6189115;23;20016;-74
2022/12/13 04:10:57;;;;;;;45.42;16.83;;;-1.70;99.90;;;;;;6161280;23;19943;-75
2022/12/13 04:13:33;;;;;;;47.30;17.75;;;-3.40;99.90;;;;;;6163151;23;20020;-75
2022/12/13 04:16:01;;;;;;;45.03;17.05;;;-3.40;99.90;;;;;;6138769;23;20013;-74
2022/12/13 04:18:29;;;;;;;45.25;17.63;;;-3.40;99.90;;;;;;6187125;23;20445;-75
2022/12/13 04:20:57;;;;;;;49.17;17.70;;;-3.50;99.90;;;;;;6163167;23;20017;-76
2022/12/13 04:23:24;;;;;;;50.33;18.23;;;-3.50;99.90;;;;;;6187896;23;20021;-75
2022/12/13 04:25:52;;;;;;;40.90;17.77;;;-3.50;99.90;;;;;;6173313;23;20330;-75
2022/12/13 04:28:19;;;;;;;46.50;17.98;;;-3.60;99.90;;;;;;6162965;23;20315;-75
2022/12/13 04:30:52;;;;;;;50.08;18.25;;;-3.50;99.90;;;;;;6137310;23;20013;-75
2022/12/13 04:33:21;;;;;;;47.95;18.13;;;-3.60;99.90;;;;;;6172857;23;20430;-73
2022/12/13 04:35:49;;;;;;;43.13;18.08;;;-3.60;99.90;;;;;;6162319;23;20017;-74
2022/12/13 04:38:17;;;;;;;48.70;18.27;;;-3.60;99.90;;;;;;6161250;23;20017;-75
2022/12/13 04:40:45;;;;;;;;;;;-3.60;99.90;;;;;;6163389;23;20022;-74
2022/12/13 04:43:12;;;;;;;;;;;-3.60;99.90;;;;;;6187698;23;19916;-74
2022/12/13 04:45:40;;;;;;;46.67;16.38;;;-3.60;99.90;;;;;;6162842;23;19916;-75
2022/12/13 04:48:07;;;;;;;;;;;-3.60;99.90;;;;;;6138187;23;20024;-75
2022/12/13 04:50:35;;;;;;;43.45;16.13;;;-3.20;99.90;;;;;;6187077;23;20217;-74
2022/12/13 04:53:03;;;;;;;46.67;16.83;;;-3.60;99.90;;;;;;6188299;23;20437;-75
2022/12/13 04:55:30;;;;;;;51.10;18.35;;;-3.60;99.90;;;;;;6162867;23;20009;-75
2022/12/13 04:57:58;;;;;;;42.70;17.35;;;-3.60;99.90;;;;;;6112637;23;20032;-75
2022/12/13 05:00:25;;;;;;;55.80;17.92;;;-3.60;99.90;;;;;;6162359;23;20020;-75
2022/12/13 05:02:53;;;;;;;43.97;17.27;;;-3.60;99.90;;;;;;6161914;23;20453;-75
2022/12/13 05:05:21;;;;;;;48.00;18.98;;;-3.60;99.90;;;;;;6136697;23;20024;-75
2022/12/13 05:07:48;;;;;;;52.90;19.70;;;-3.60;99.90;;;;;;6162646;23;20024;-74
2022/12/13 05:10:16;;;;;;;50.80;18.17;;;-3.60;99.90;;;;;;6161170;23;20066;-75
2022/12/13 05:13:03;;;;;;;55.03;19.15;;;-3.60;99.90;;;;;;6176394;23;20016;-75
2022/12/13 05:15:30;;;;;;;55.20;19.70;;;-3.60;99.90;;;;;;6138242;23;20009;-74
2022/12/13 05:18:04;;;;;;;51.03;18.98;;;-3.60;99.90;;;;;;6170912;23;20017;-75
2022/12/13 05:20:38;;;;;;;54.50;19.63;;;-3.60;99.90;;;;;;6198438;23;20024;-74
2022/12/13 05:23:06;;;;;;;52.33;18.98;;;-3.60;99.90;;;;;;6186677;23;20465;-75
2022/12/13 05:25:35;;;;;;;52.25;19.48;;;-3.40;99.90;;;;;;6187984;23;20024;-75
2022/12/13 05:28:04;;;;;;;61.22;20.65;;;-3.50;99.90;;;;;;6173050;23;20009;-74
2022/12/13 05:30:53;;;;;;;59.08;20.67;;;-3.50;99.90;;;;;;6135853;23;20017;-75
2022/12/13 05:33:22;;;;;;;61.40;20.55;;;-3.50;99.90;;;;;;6188229;23;20009;-74
2022/12/13 05:35:50;;;;;;;56.20;20.08;;;-3.50;99.90;;;;;;6162241;23;20009;-73
2022/12/13 05:38:24;;;;;;;63.22;19.55;;;-3.40;99.90;;;;;;6137525;23;20028;-73
2022/12/13 05:40:51;;;;;;;52.88;18.67;;;-3.50;99.90;;;;;;6188683;23;20017;-74
2022/12/13 05:43:19;;;;;;;52.90;19.58;;;-3.40;99.90;;;;;;6160602;23;20021;-74
2022/12/13 05:45:48;;;;;;;52.63;19.23;;;-3.40;99.90;;;;;;6172677;23;20017;-75
2022/12/13 05:48:15;;;;;;;55.40;19.52;;;-3.40;99.90;;;;;;6187879;23;20016;-75
2022/12/13 05:50:52;;;;;;;51.40;18.80;;;-3.40;99.90;;;;;;6195487;23;20021;-74
2022/12/13 05:53:38;;;;;;;51.72;18.27;;;-3.40;99.90;;;;;;6176090;23;20013;-75
2022/12/13 05:56:06;;;;;;;51.25;19.15;;;-3.30;99.90;;;;;;6162134;23;20449;-73
2022/12/13 05:58:34;;;;;;;48.30;18.08;;;-3.30;99.90;;;;;;6160576;23;20024;-73
2022/12/13 06:01:09;;;;;;;51.78;17.15;;;-3.30;99.90;;;;;;6187357;23;20031;-74
2022/12/13 06:03:37;;;;;;;49.10;18.48;;;-3.20;99.90;;;;;;6170535;23;20017;-75
2022/12/13 06:06:07;;;;;;;49.80;18.63;;;-3.20;99.90;;;;;;6172149;23;20414;-75
2022/12/13 06:08:35;;;;;;;49.95;18.45;;;-3.20;99.90;;;;;;6187540;23;20020;-74
2022/12/13 06:11:04;;;;;;;48.05;17.27;;;-3.20;99.90;;;;;;6186249;23;20009;-75
2022/12/13 06:13:42;;;;;;;47.38;18.17;;;-3.20;99.90;;;;;;6197468;23;20013;-75
2022/12/13 06:16:12;;;;;;;48.10;17.08;;;-3.20;99.90;;;;;;6198361;23;20020;-75
2022/12/13 06:18:51;;;;;;;51.20;17.20;;;-3.20;99.90;;;;;;6196494;23;20023;-74
2022/12/13 06:21:33;;;;;;;46.88;17.30;;;-2.50;99.90;;;;;;6161703;23;20017;-75
2022/12/13 06:24:17;;;;;;;44.35;17.30;;;-3.20;99.90;;;;;;6196272;23;20035;-75
2022/12/13 06:26:45;;;;;;;43.22;17.45;;;-1.80;99.90;;;;;;6162202;23;20334;-75
2022/12/13 06:29:14;;;;;;;42.08;17.05;;;-3.10;99.90;;;;;;6161712;23;20318;-75
2022/12/13 06:32:01;;;;;;;47.00;17.05;;;-3.10;99.90;;;;;;6170227;23;20024;-75
2022/12/13 06:34:33;;;;;;;48.75;17.85;;;-3.10;99.90;;;;;;6171364;23;20009;-73
2022/12/13 06:37:07;;;;;;;43.88;16.80;;;-3.10;99.90;;;;;;6171269;23;20009;-75
2022/12/13 06:39:34;;;;;;;49.20;17.50;;;-3.10;99.90;;;;;;6197820;23;20437;-74
2022/12/13 06:42:04;;;;;;;49.90;17.52;;;-3.10;99.90;;;;;;6161743;23;20013;-75
2022/12/13 06:44:33;;;;;;;45.13;16.80;;;-3.10;99.90;;;;;;6170423;23;20315;-74
2022/12/13 06:47:04;;;;;;;43.80;16.55;;;-3.10;99.90;;;;;;6197185;23;20016;-74
2022/12/13 06:49:41;;;;;;;49.50;16.90;;;-3.10;99.90;;;;;;6147521;23;20012;-74
2022/12/13 06:52:11;;;;;;;44.63;16.65;;;-3.10;99.90;;;;;;6161844;23;20017;-75
2022/12/13 06:54:41;;;;;;;45.70;17.13;;;-3.10;99.90;;;;;;6161494;23;20310;-75
2022/12/13 06:57:12;;;;;;;41.85;16.52;;;-3.10;99.90;;;;;;6170088;23;20326;-74
2022/12/13 06:59:40;;;;;;;41.28;16.35;;;-3.20;99.90;;;;;;6197254;23;20021;-74
2022/12/13 07:02:08;;;;;;;40.00;16.10;;;-3.20;99.90;;;;;;6187109;23;20017;-75
2022/12/13 07:04:53;;;;;;;42.38;17.35;;;-1.20;99.90;;;;;;6195854;23;20021;-75
2022/12/13 07:07:22;;;;;;;42.90;17.27;;;-3.20;99.90;;;;;;6161447;23;20020;-74
2022/12/13 07:09:49;;;;;;;40.00;16.25;;;-3.20;99.90;;;;;;6159946;23;20017;-75
2022/12/13 07:12:18;;;;;;;29.63;12.65;;;-3.20;99.90;;;;;;6161605;23;20021;-74
2022/12/13 07:14:46;;;;;;;47.50;17.23;;;-3.20;99.90;;;;;;6161576;23;20442;-75
2022/12/13 07:17:13;;;;;;;50.88;17.65;;;-3.20;99.90;;;;;;6136117;23;20076;-73
2022/12/13 07:20:03;;;;;;;54.22;17.77;;;-3.30;99.90;;;;;;6197223;23;20013;-74
2022/12/13 07:22:30;;;;;;;45.60;18.02;;;-3.30;99.90;;;;;;6136481;23;20438;-75
2022/12/13 07:25:03;;;;;;;43.00;16.63;;;-3.30;99.90;;;;;;6136260;23;20075;-75
2022/12/13 07:27:31;;;;;;;44.58;17.38;;;-3.20;99.90;;;;;;6197350;23;20013;-74
2022/12/13 07:29:59;;;;;;;47.03;17.17;;;-3.20;99.90;;;;;;6160129;23;20009;-74
2022/12/13 07:32:27;;;;;;;;;;;-3.20;99.90;;;;;;6137356;23;20501;-74
2022/12/13 07:34:54;;;;;;;;;;;-2.80;99.90;;;;;;6162469;23;19923;-73
2022/12/13 07:37:22;;;;;;;42.53;17.02;;;-3.20;99.90;;;;;;6160319;23;20294;-73
2022/12/13 07:39:58;;;;;;;45.08;16.90;;;-3.20;99.90;;;;;;6195988;23;20024;-74
2022/12/13 07:42:30;;;;;;;49.58;18.38;;;-2.70;99.90;;;;;;6171163;23;20418;-74
2022/12/13 07:44:58;;;;;;;58.20;19.00;;;-3.10;99.90;;;;;;6160210;23;20020;-75
2022/12/13 07:47:31;;;;;;;47.03;18.30;;;-3.10;99.90;;;;;;6161071;23;20024;-74
2022/12/13 07:49:59;;;;;;;53.13;19.25;;;-3.00;99.90;;;;;;6160390;23;20028;-76
2022/12/13 07:52:28;;;;;;;56.97;19.63;;;-3.10;99.90;;;;;;6188142;23;20028;-75
2022/12/13 07:54:55;;;;;;;54.08;20.23;;;-3.00;99.90;;;;;;6188179;23;20013;-74
2022/12/13 07:57:23;;;;;;;54.20;19.23;;;-3.00;99.90;;;;;;6137194;23;20028;-76
2022/12/13 07:59:51;;;;;;;60.78;19.77;;;-3.00;99.90;;;;;;6138145;23;20020;-75
2022/12/13 08:02:18;;;;;;;56.65;20.30;;;-3.60;99.90;;;;;;6163119;23;20318;-74
2022/12/13 08:04:46;;;;;;;63.03;21.77;;;-2.30;99.90;;;;;;6187645;23;20013;-76
2022/12/13 08:07:21;;;;;;;62.67;21.65;;;-3.10;99.90;;;;;;6163168;23;20028;-75
2022/12/13 08:09:49;;;;;;;56.78;21.80;;;-2.90;99.90;;;;;;6161389;23;20069;-76
2022/12/13 08:12:20;;;;;;;61.90;21.63;;;-2.90;99.90;;;;;;6188562;23;20020;-74
2022/12/13 08:14:49;;;;;;;54.17;20.67;;;-3.10;99.90;;;;;;6163284;23;20016;-75
2022/12/13 08:17:22;;;;;;;55.22;21.40;;;-2.90;99.90;;;;;;6186686;23;20013;-75
2022/12/13 08:19:50;;;;;;;61.67;21.17;;;-2.90;99.90;;;;;;6188765;23;20020;-75
2022/12/13 08:22:18;;;;;;;55.22;21.08;;;-2.80;99.90;;;;;;6162599;23;20028;-75
2022/12/13 08:24:51;;;;;;;56.90;21.05;;;-2.50;99.90;;;;;;6113445;23;20017;-74
2022/12/13 08:27:18;;;;;;;49.20;20.40;;;-2.80;99.90;;;;;;6198770;23;20020;-76
2022/12/13 08:29:54;;;;;;;54.17;20.55;;;-2.40;99.90;;;;;;6185437;23;20418;-78
2022/12/13 08:32:22;;;;;;;54.67;20.90;;;-0.80;99.90;;;;;;6113708;23;20027;-76
2022/12/13 08:34:49;;;;;;;;;;;-0.60;99.90;;;;;;6163061;23;20010;-77
2022/12/13 08:37:17;;;;;;;56.42;19.95;;;-2.80;99.90;;;;;;6136480;23;19916;-77
2022/12/13 08:39:44;;;;;;;;;;;-1.70;99.90;;;;;;6189027;23;20016;-77
2022/12/13 08:42:14;;;;;;;53.90;20.27;;;-1.50;99.90;;;;;;6188616;23;19931;-75
2022/12/13 08:44:50;;;;;;;49.72;20.67;;;-2.70;99.90;;;;;;6171341;23;20318;-75
2022/12/13 08:47:21;;;;;;;59.45;20.88;;;-2.80;99.90;;;;;;6138156;23;20323;-77
2022/12/13 08:49:57;;;;;;;54.00;19.83;;;-2.70;99.90;;;;;;6160159;23;20430;-77
2022/12/13 08:52:33;;;;;;;49.13;20.33;;;-2.70;99.90;;;;;;6173638;23;20009;-75
2022/12/13 08:55:10;;;;;;;53.50;20.95;;;-2.80;99.90;;;;;;6172117;23;20013;-77
2022/12/13 08:57:39;;;;;;;47.85;19.38;;;-2.60;99.90;;;;;;6160582;23;20017;-76
2022/12/13 09:00:12;;;;;;;48.92;19.75;;;-2.60;99.90;;;;;;6162181;23;20020;-78
2022/12/13 09:02:41;;;;;;;48.35;19.48;;;-2.50;99.90;;;;;;6161841;23;20052;-76
2022/12/13 09:05:11;;;;;;;49.47;19.35;;;-2.40;99.90;;;;;;6161022;23;20017;-77
2022/12/13 09:08:01;;;;;;;50.78;18.15;;;-2.40;99.90;;;;;;6171965;23;20017;-75
2022/12/13 09:10:30;;;;;;;46.88;19.38;;;-1.20;99.90;;;;;;6136009;23;20017;-78
2022/12/13 09:13:07;;;;;;;45.95;18.75;;;-0.90;99.90;;;;;;6197818;23;20009;-77
2022/12/13 09:15:39;;;;;;;47.45;18.42;;;-2.20;99.90;;;;;;6137360;23;20024;-77
2022/12/13 09:18:12;;;;;;;47.72;18.95;;;-2.20;99.90;;;;;;6196558;23;20013;-78
2022/12/13 09:20:41;;;;;;;46.05;18.17;;;0.10;99.90;;;;;;6161439;23;20032;-77
2022/12/13 09:23:10;;;;;;;43.65;18.77;;;0.20;99.90;;;;;;6186482;23;20017;-75
2022/12/13 09:25:55;;;;;;;41.83;17.98;;;0.60;99.90;;;;;;6197194;23;20315;-75
2022/12/13 09:28:33;;;;;;;39.97;17.77;;;-0.10;99.90;;;;;;6197554;23;20016;-76
2022/12/13 09:31:11;;;;;;;45.28;18.55;;;-1.90;99.90;;;;;;6135806;23;20017;-76
2022/12/13 09:33:41;;;;;;;51.03;19.50;;;-1.80;99.90;;;;;;6161716;23;20013;-75
2022/12/13 09:36:15;;;;;;;45.05;18.25;;;-1.70;99.90;;;;;;6197977;23;20020;-76
2022/12/13 09:38:43;;;;;;;44.97;17.70;;;-1.60;99.90;;;;;;6197281;23;20311;-76
2022/12/13 09:41:14;;;;;;;;;;;-1.50;99.90;;;;;;6162331;23;20318;-76
2022/12/13 09:43:55;;;;;;;42.58;16.80;;;-1.50;99.90;;;;;;6170963;23;19924;-76
2022/12/13 09:46:33;;;;;;;42.08;17.80;;;0.50;99.90;;;;;;6161473;23;20013;-78
2022/12/13 09:49:40;;;;;;;44.42;18.83;;;-1.60;99.90;;;;;;6174118;23;20417;-77
2022/12/13 09:52:14;;;;;;;46.10;18.48;;;0.80;99.90;;;;;;6159480;23;20024;-78
2022/12/13 09:54:52;;;;;;;48.58;19.13;;;1.20;99.90;;;;;;6162399;23;20017;-78
2022/12/13 09:57:28;;;;;;;46.47;19.33;;;-1.10;99.90;;;;;;6196507;23;20449;-77
2022/12/13 10:00:20;;;;;;;49.63;20.75;;;-1.30;99.90;;;;;;6172117;23;20036;-78
2022/12/13 10:02:52;;;;;;;48.78;20.15;;;0.70;99.90;;;;;;6134880;23;20017;-77
2022/12/13 10:05:37;;;;;;;53.17;21.73;;;1.20;99.90;;;;;;6140978;23;20292;-74
2022/12/13 10:08:11;;;;;;;62.25;23.25;;;-0.80;99.90;;;;;;6158399;23;20018;-79
2022/12/13 10:10:39;;;;;;;51.08;21.33;;;-0.70;99.90;;;;;;6130397;23;20024;-80
2022/12/13 10:13:18;;;;;;;50.10;21.20;;;1.40;99.90;;;;;;6156404;23;20072;-79
2022/12/13 10:16:17;;;;;;;57.08;24.52;;;0.50;99.90;;;;;;6166248;23;20315;-80
2022/12/13 10:18:50;;;;;;;52.85;22.08;;;0.70;99.90;;;;;;6139000;23;20093;-78
2022/12/13 10:21:25;;;;;;;58.72;24.38;;;1.20;99.90;;;;;;6155748;23;20017;-77
2022/12/13 10:24:16;;;;;;;66.78;26.10;;;1.30;99.90;;;;;;6165536;23;20014;-78
2022/12/13 10:27:15;;;;;;;55.43;23.53;;;-0.30;99.90;;;;;;6155665;23;20018;-74
2022/12/13 10:30:13;;;;;;;48.45;21.15;;;-0.30;99.90;;;;;;6154832;23;20258;-76
2022/12/13 10:33:01;;;;;;;48.25;18.73;;;-0.20;99.90;;;;;;6166193;23;20010;-77
2022/12/13 10:35:37;;;;;;;38.97;17.00;;;-0.10;99.90;;;;;;6156118;23;20021;-74
2022/12/13 10:38:09;;;;;;;33.83;15.02;;;0.00;99.90;;;;;;6165425;23;20014;-75
2022/12/13 10:40:47;;;;;;;31.48;14.48;;;0.00;99.90;;;;;;6155985;23;20021;-75
2022/12/13 10:43:19;;;;;;;34.08;14.70;;;0.00;99.90;;;;;;6154967;23;20033;-75
2022/12/13 10:45:57;;;;;;;35.78;14.30;;;0.10;99.90;;;;;;6165981;23;20025;-74
2022/12/13 10:48:48;;;;;;;31.83;14.07;;;-0.10;99.90;;;;;;6166976;23;20446;-76
2022/12/13 10:51:19;;;;;;;32.65;13.63;;;1.00;99.90;;;;;;6130263;23;20014;-77
2022/12/13 10:53:51;;;;;;;31.67;14.05;;;2.90;99.90;;;;;;6157041;23;20013;-78
2022/12/13 10:56:21;;;;;;;32.28;13.00;;;0.30;99.90;;;;;;6165065;23;20017;-78
2022/12/13 10:59:08;;;;;;;38.42;14.32;;;0.70;99.90;;;;;;6132205;23;20040;-78
2022/12/13 11:01:43;;;;;;;36.80;15.00;;;2.60;99.90;;;;;;6129787;23;20017;-76
2022/12/13 11:04:30;;;;;;;;;;;0.30;99.90;;;;;;6156442;23;20315;-76
2022/12/13 11:07:01;;;;;;;33.15;14.35;;;0.40;99.90;;;;;;6106922;23;20222;-74
2022/12/13 11:09:35;;;;;;;35.10;14.63;;;0.40;99.90;;;;;;6131370;23;20446;-75
2022/12/13 11:12:19;;;;;;;28.90;15.03;;;0.50;99.90;;;;;;6166886;23;20013;-76
2022/12/13 11:15:05;;;;;;;31.77;14.93;;;1.40;99.90;;;;;;6141294;23;20013;-76
2022/12/13 11:17:57;;;;;;;34.75;14.75;;;0.50;99.90;;;;;;6105700;23;20018;-76
2022/12/13 11:20:29;;;;;;;33.50;14.20;;;0.50;99.90;;;;;;6107006;23;20017;-75
2022/12/13 11:23:11;;;;;;;31.52;15.02;;;2.00;99.90;;;;;;6166030;23;20014;-73
2022/12/13 11:25:43;;;;;;;33.20;15.27;;;1.90;99.90;;;;;;6107105;23;20021;-74
2022/12/13 11:28:38;;;;;;;35.17;17.20;;;2.10;99.90;;;;;;6167436;23;20013;-75
2022/12/13 11:31:06;;;;;;;33.65;16.77;;;0.70;99.90;;;;;;6142723;23;20013;-75
2022/12/13 11:33:36;;;;;;;33.35;17.08;;;0.70;99.90;;;;;;6085709;23;20018;-75
2022/12/13 11:36:33;;;;;;;39.90;18.23;;;0.80;99.90;;;;;;6169248;23;20009;-74
2022/12/13 11:39:15;;;;;;;32.60;16.85;;;0.90;99.90;;;;;;6109240;23;20023;-77
2022/12/13 11:42:08;;;;;;;37.75;17.15;;;0.80;99.90;;;;;;6169949;23;20422;-75
2022/12/13 11:44:57;;;;;;;32.63;16.45;;;0.90;99.90;;;;;;6132020;23;20018;-76
2022/12/13 11:48:03;;;;;;;34.33;16.55;;;0.90;99.90;;;;;;6109243;23;20018;-75
2022/12/13 11:50:37;;;;;;;37.13;17.63;;;1.00;99.90;;;;;;6132684;23;20035;-74
2022/12/13 11:53:29;;;;;;;34.88;16.75;;;1.00;99.90;;;;;;6109057;23;20025;-75
2022/12/13 11:56:22;;;;;;;34.53;15.52;;;1.10;99.90;;;;;;6168988;23;20025;-74
2022/12/13 11:59:07;;;;;;;31.25;15.10;;;1.10;99.90;;;;;;6169012;23;20050;-75
2022/12/13 12:02:11;;;;;;;34.95;15.38;;;1.20;99.90;;;;;;6174895;23;20024;-74
2022/12/13 12:04:55;;;;;;;30.05;15.43;;;1.20;99.90;;;;;;6197550;23;20020;-73
2022/12/13 12:07:45;;;;;;;34.60;15.68;;;1.20;99.90;;;;;;6199009;23;20020;-76
2022/12/13 12:10:37;;;;;;;34.17;16.27;;;1.30;99.90;;;;;;6161662;23;20013;-74
2022/12/13 12:13:38;;;;;;;35.03;16.15;;;1.20;99.90;;;;;;6197171;23;20009;-77
2022/12/13 12:16:24;;;;;;;30.95;14.98;;;1.20;99.90;;;;;;6160502;23;20017;-77
2022/12/13 12:18:52;;;;;;;30.67;14.63;;;1.20;99.90;;;;;;6172862;23;20020;-77
2022/12/13 12:21:42;;;;;;;31.05;15.85;;;1.10;99.90;;;;;;6113617;23;20021;-78
2022/12/13 12:25:06;;;;;;;29.17;14.88;;;1.20;99.90;;;;;;6136245;23;20021;-78
2022/12/13 12:27:57;;;;;;;31.50;14.15;;;1.30;99.90;;;;;;6068283;23;20027;-79
2022/12/13 12:30:36;;;;;;;29.85;13.77;;;1.40;99.90;;;;;;6161301;23;20017;-78
2022/12/13 12:33:29;;;;;;;26.98;14.40;;;3.50;99.90;;;;;;6198227;23;20013;-78
2022/12/13 12:36:21;;;;;;;29.70;14.27;;;1.20;99.90;;;;;;6198174;23;20017;-79
2022/12/13 12:38:59;;;;;;;30.63;14.55;;;1.20;99.90;;;;;;6196888;23;20020;-77
2022/12/13 12:41:30;;;;;;;28.98;14.18;;;2.60;99.90;;;;;;6162486;23;20017;-76
2022/12/13 12:44:05;;;;;;;29.98;14.27;;;1.60;99.90;;;;;;6196604;23;20077;-78
2022/12/13 12:47:11;;;;;;;32.53;14.35;;;1.30;99.90;;;;;;6138222;23;20021;-78
2022/12/13 12:50:22;;;;;;;31.75;15.38;;;1.30;99.90;;;;;;6161478;23;20322;-78
2022/12/13 12:53:05;;;;;;;31.95;16.60;;;1.60;99.90;;;;;;6162568;23;20017;-77
2022/12/13 12:55:55;;;;;;;36.28;18.30;;;1.30;99.90;;;;;;6113126;23;20020;-78
2022/12/13 12:58:29;;;;;;;39.13;18.67;;;1.30;99.90;;;;;;6135802;23;20072;-77
2022/12/13 13:01:21;;;;;;;36.08;18.48;;;1.50;99.90;;;;;;6172473;23;20068;-78
2022/12/13 13:03:54;;;;;;;38.13;19.58;;;1.20;99.90;;;;;;6160390;23;20029;-77
2022/12/13 13:06:35;;;;;;;39.80;19.13;;;3.20;99.90;;;;;;6172142;23;20326;-78
2022/12/13 13:09:27;;;;;;;36.50;17.90;;;2.90;99.90;;;;;;6172238;23;20020;-78
2022/12/13 13:11:57;;;;;;;38.42;18.80;;;4.30;99.90;;;;;;6160565;23;20028;-78
2022/12/13 13:14:35;;;;;;;44.80;20.48;;;2.40;99.90;;;;;;6162039;23;20407;-78
2022/12/13 13:17:15;;;;;;;39.03;20.08;;;3.40;99.90;;;;;;6170526;23;20013;-78